Time;durP1;ratioP1;P1;durP2;ratioP2;P2;SDS_P1;SDS_P2;PMS_P1;PMS_P2;Temp;Humidity;BMP_temperature;BMP_pressure;BME280_temperature;BME280_humidity;BME280_pressure;Samples;Min_cycle;Max_cycle;Signal;HPM_P1;HPM_P2
2022/06/26 00:00:19;;;;;;;14.38;11.35;;;17.70;1.00;;;18.54;100.00;99618.44;5019355;28;129881;-76
2022/06/26 00:02:48;;;;;;;13.77;11.43;;;17.70;1.00;;;18.47;100.00;99625.38;5019327;28;130013;-74
2022/06/26 00:05:17;;;;;;;14.10;11.00;;;17.70;1.00;;;18.40;100.00;99619.75;5019724;28;119395;-75
2022/06/26 00:07:46;;;;;;;12.73;10.15;;;17.70;1.00;;;18.36;100.00;99629.06;5004817;28;119201;-75
2022/06/26 00:10:15;;;;;;;14.85;10.82;;;17.60;1.00;;;18.36;100.00;99627.13;5019046;28;130027;-75
2022/06/26 00:12:44;;;;;;;13.40;10.93;;;17.60;1.00;;;18.32;100.00;99629.78;5004636;28;129446;-75
2022/06/26 00:15:13;;;;;;;11.30;9.73;;;17.60;1.00;;;18.29;100.00;99629.69;5019723;28;119592;-77
2022/06/26 00:17:43;;;;;;;13.15;10.32;;;17.50;1.00;;;18.24;100.00;99628.03;5001560;28;119593;-76
2022/06/26 00:20:13;;;;;;;12.38;10.80;;;17.50;1.00;;;18.18;100.00;99621.22;5017777;28;129905;-77
2022/06/26 00:22:41;;;;;;;13.20;10.50;;;17.40;1.00;;;18.12;100.00;99619.94;5018979;28;130539;-74
2022/06/26 00:25:10;;;;;;;12.68;10.25;;;17.40;1.00;;;18.08;100.00;99627.31;5019555;28;119993;-76
2022/06/26 00:27:39;;;;;;;15.02;10.38;;;17.40;1.00;;;18.07;100.00;99623.75;5001540;28;119372;-76
2022/06/26 00:30:09;;;;;;;13.82;11.27;;;17.40;1.00;;;18.05;100.00;99636.25;5004379;28;130882;-75
2022/06/26 00:32:38;;;;;;;14.13;9.90;;;17.30;1.00;;;18.05;100.00;99630.78;5034237;27;129743;-74
2022/06/26 00:35:10;;;;;;;12.93;9.73;;;17.30;1.00;;;18.09;100.00;99637.13;5034074;27;119969;-75
2022/06/26 00:37:39;;;;;;;13.15;10.18;;;17.30;1.00;;;18.12;100.00;99637.22;5004827;28;119008;-74
2022/06/26 00:40:10;;;;;;;13.23;10.52;;;17.30;1.00;;;18.18;100.00;99639.66;5037152;27;129696;-75
2022/06/26 00:42:39;;;;;;;12.50;9.40;;;17.20;1.00;;;18.19;100.00;99636.56;4987452;28;128577;-75
2022/06/26 00:45:09;;;;;;;10.95;9.75;;;17.20;1.00;;;18.20;100.00;99631.84;5017809;28;122294;-75
2022/06/26 00:47:38;;;;;;;15.73;10.90;;;17.20;1.00;;;18.08;100.00;99646.53;5001055;28;123264;-75
2022/06/26 00:50:09;;;;;;;12.93;10.85;;;17.10;1.00;;;17.94;100.00;99642.28;5003545;28;129625;-75
2022/06/26 00:52:41;;;;;;;13.20;11.27;;;17.10;1.00;;;17.85;100.00;99638.13;5000499;28;129589;-75
2022/06/26 00:55:11;;;;;;;13.77;11.32;;;17.10;1.00;;;17.80;100.00;99641.94;5037591;27;119382;-75
2022/06/26 00:57:40;;;;;;;16.40;11.95;;;17.10;1.00;;;17.78;100.00;99639.56;5001072;28;119866;-74
2022/06/26 01:00:12;;;;;;;16.35;11.73;;;17.10;1.00;;;17.75;100.00;99650.47;5003757;28;130179;-75
2022/06/26 01:02:42;;;;;;;15.00;11.88;;;17.10;1.00;;;17.71;100.00;99655.84;5000868;28;130374;-75
2022/06/26 01:05:12;;;;;;;15.70;11.70;;;17.10;1.00;;;17.67;100.00;99660.47;5037659;27;119176;-75
2022/06/26 01:07:41;;;;;;;17.13;12.18;;;17.10;3.50;;;17.71;100.00;99655.06;5018866;28;119199;-74
2022/06/26 01:10:10;;;;;;;13.10;11.40;;;17.00;10.50;;;17.69;100.00;99652.66;5002434;28;129886;-74
2022/06/26 01:12:39;;;;;;;14.55;11.40;;;17.00;24.50;;;17.71;100.00;99655.06;5033954;27;129551;-75
2022/06/26 01:15:11;;;;;;;13.27;10.82;;;17.00;24.80;;;17.75;100.00;99656.75;5003906;28;119694;-75
2022/06/26 01:17:41;;;;;;;14.45;10.55;;;16.90;19.80;;;17.79;100.00;99654.06;5034404;27;120042;-74
2022/06/26 01:20:16;;;;;;;13.10;10.43;;;16.90;21.30;;;17.81;100.00;99651.78;5003370;28;129787;-76
2022/06/26 01:22:56;;;;;;;13.77;10.75;;;16.80;28.60;;;17.77;100.00;99654.41;5018275;28;130072;-76
2022/06/26 01:25:25;;;;;;;14.65;11.07;;;16.80;51.20;;;17.74;100.00;99657.09;5037275;27;119615;-76
2022/06/26 01:27:54;;;;;;;12.95;11.10;;;16.80;78.90;;;17.64;100.00;99657.63;5000753;28;120359;-75
2022/06/26 01:30:23;;;;;;;12.85;11.45;;;16.80;97.20;;;17.57;100.00;99655.50;5036888;27;130303;-75
2022/06/26 01:32:51;;;;;;;12.90;11.25;;;16.80;97.40;;;17.53;100.00;99666.41;5000004;28;130490;-74
2022/06/26 01:35:20;;;;;;;14.77;10.85;;;16.80;96.80;;;17.55;100.00;99660.56;5002605;28;123108;-75
2022/06/26 01:38:12;;;;;;;15.07;10.93;;;16.70;98.30;;;17.58;100.00;99668.09;5003640;28;121298;-75
2022/06/26 01:40:42;;;;;;;15.32;10.95;;;16.70;99.90;;;17.57;100.00;99666.47;5003091;28;129805;-75
2022/06/26 01:43:14;;;;;;;12.18;10.80;;;16.70;99.90;;;17.56;100.00;99671.19;5033474;27;129452;-76
2022/06/26 01:45:44;;;;;;;15.23;12.75;;;16.70;99.90;;;17.57;100.00;99672.75;5034028;27;119820;-76
2022/06/26 01:48:15;;;;;;;13.95;11.48;;;16.70;99.90;;;17.60;100.00;99666.56;5037502;27;119972;-77
2022/06/26 01:50:45;;;;;;;12.50;10.98;;;16.70;99.90;;;17.66;100.00;99677.28;5003116;28;130054;-76
2022/06/26 01:53:16;;;;;;;12.70;10.68;;;16.70;99.90;;;17.64;100.00;99674.09;4990227;28;128465;-76
2022/06/26 01:55:45;;;;;;;14.23;11.15;;;16.70;99.90;;;17.55;100.00;99677.81;5003591;28;119947;-76
2022/06/26 01:58:17;;;;;;;13.40;10.63;;;16.70;99.90;;;17.54;100.00;99678.94;5003571;28;119418;-76
2022/06/26 02:00:50;;;;;;;14.20;11.95;;;16.80;99.90;;;17.52;100.00;99686.75;5005233;28;130702;-76
2022/06/26 02:03:22;;;;;;;12.98;11.60;;;16.70;99.90;;;17.46;100.00;99688.16;5006381;28;129528;-76
2022/06/26 02:05:52;;;;;;;12.63;10.93;;;16.80;99.90;;;17.51;100.00;99689.84;5006882;28;119772;-75
2022/06/26 02:08:23;;;;;;;14.20;11.00;;;16.70;99.90;;;17.61;100.00;99689.34;5037166;27;119944;-76
2022/06/26 02:13:39;;;;;;;14.60;11.02;;;16.80;99.90;;;17.78;100.00;99693.66;5036990;27;130096;-76
2022/06/26 02:16:15;;;;;;;12.93;11.40;;;16.80;99.90;;;17.78;100.00;99696.41;5003470;28;119817;-75
2022/06/26 02:18:46;;;;;;;;;;;16.80;99.90;;;17.68;100.00;99696.94;5024246;28;119425;-75
2022/06/26 02:21:18;;;;;;;13.23;11.25;;;16.80;90.00;;;17.73;100.00;99707.63;5005911;28;129929;-75
2022/06/26 02:23:50;;;;;;;13.38;11.27;;;16.90;76.30;;;17.76;100.00;99707.75;4989435;28;128351;-74
2022/06/26 02:26:20;;;;;;;14.68;11.90;;;16.90;59.70;;;17.79;100.00;99698.81;5001816;28;121872;-76
2022/06/26 02:28:50;;;;;;;13.85;11.38;;;17.00;42.30;;;17.87;100.00;99701.69;5003077;28;121891;-75
2022/06/26 02:31:20;;;;;;;12.70;9.93;;;17.00;22.70;;;17.95;100.00;99701.56;5002507;28;129835;-76
2022/06/26 02:33:50;;;;;;;12.55;11.25;;;17.10;15.10;;;18.10;100.00;99712.88;5002552;28;129510;-75
2022/06/26 02:36:19;;;;;;;12.45;9.43;;;17.10;1.00;;;18.24;100.00;99710.44;5021351;28;119945;-75
2022/06/26 02:38:49;;;;;;;13.80;11.15;;;17.20;1.00;;;18.41;100.00;99714.75;4989917;28;119085;-76
2022/06/26 02:41:18;;;;;;;11.30;9.90;;;17.30;1.00;;;18.54;100.00;99712.66;5023024;28;130410;-75
2022/06/26 02:43:48;;;;;;;13.75;10.63;;;17.30;1.00;;;18.67;100.00;99722.38;5002923;28;129679;-73
2022/06/26 02:46:17;;;;;;;11.88;9.52;;;17.40;1.00;;;18.83;100.00;99713.25;5020963;28;119453;-76
2022/06/26 02:48:49;;;;;;;14.38;10.68;;;17.50;1.00;;;18.95;100.00;99726.91;5006044;28;119501;-73
2022/06/26 02:51:19;;;;;;;12.30;10.13;;;17.60;1.00;;;18.97;100.00;99719.06;5001378;28;130171;-73
2022/06/26 02:53:49;;;;;;;13.40;10.65;;;17.70;1.00;;;19.09;100.00;99720.06;5005428;28;129641;-75
2022/06/26 02:56:18;;;;;;;10.68;9.45;;;17.80;1.00;;;19.43;100.00;99723.06;5002931;28;119601;-76
2022/06/26 02:58:47;;;;;;;10.25;8.70;;;17.90;1.00;;;20.26;99.21;99719.72;5001651;28;119458;-74
2022/06/26 03:01:17;;;;;;;12.10;8.75;;;18.60;1.00;;;20.80;92.99;99721.25;4988676;28;129059;-75
2022/06/26 03:03:48;;;;;;;13.30;8.43;;;18.70;1.00;;;21.25;89.57;99720.56;5002663;28;129217;-75
2022/06/26 03:06:16;;;;;;;9.10;7.95;;;18.90;1.00;;;22.26;84.98;99714.69;5005814;28;119326;-75
2022/06/26 03:08:45;;;;;;;9.30;7.18;;;19.50;1.00;;;23.37;79.87;99718.34;4989636;28;118607;-74
2022/06/26 03:11:16;;;;;;;10.18;7.00;;;20.20;1.00;;;24.48;73.13;99712.75;5005508;28;129684;-75
2022/06/26 03:13:44;;;;;;;8.23;6.47;;;20.90;1.00;;;25.39;67.50;99719.50;4988739;28;129304;-73
2022/06/26 03:16:13;;;;;;;8.63;6.78;;;21.40;99.90;;;26.03;63.48;99723.00;5035003;27;122313;-75
2022/06/26 03:18:41;;;;;;;9.00;6.45;;;21.70;99.90;;;26.32;62.79;99722.72;5005654;28;121902;-74
2022/06/26 03:21:10;;;;;;;8.10;6.32;;;21.90;99.90;;;26.57;60.78;99725.22;5002051;28;129982;-75
2022/06/26 03:26:40;;;;;;;8.45;6.65;;;22.00;99.90;;;26.32;60.96;99723.50;4944933;28;119783;-75
2022/06/26 03:29:11;;;;;;;8.93;6.32;;;22.00;99.90;;;25.68;63.26;99724.88;4944062;28;120716;-74
2022/06/26 03:31:41;;;;;;;10.32;8.23;;;21.70;99.90;;;24.77;66.48;99716.22;4957627;28;130019;-75
2022/06/26 03:34:12;;;;;;;9.82;7.88;;;21.00;99.90;;;23.97;70.20;99723.16;4942489;28;130020;-75
2022/06/26 03:36:43;;;;;;;10.57;8.02;;;20.50;99.90;;;23.36;73.36;99727.84;4944997;28;120145;-75
2022/06/26 03:39:12;;;;;;;9.75;8.15;;;20.20;1.00;;;22.95;75.84;99726.94;4957983;28;119409;-75
2022/06/26 03:41:57;;;;;;;10.50;8.38;;;20.10;1.00;;;22.67;78.06;99724.03;4959045;28;130555;-75
2022/06/26 03:44:30;;;;;;;11.77;8.82;;;20.20;1.00;;;22.50;78.86;99734.63;4957301;28;129686;-75
2022/06/26 03:47:00;;;;;;;10.73;8.27;;;20.20;1.00;;;22.33;80.34;99727.00;4957759;28;119842;-74
2022/06/26 03:49:28;;;;;;;11.25;8.95;;;20.10;1.00;;;22.25;81.08;99729.72;4957456;28;119429;-74
2022/06/26 03:52:02;;;;;;;10.32;8.57;;;20.20;1.00;;;22.23;81.36;99734.81;4957579;28;130313;-75
2022/06/26 03:54:32;;;;;;;11.50;8.70;;;20.20;1.00;;;22.19;82.25;99734.00;4942702;28;129766;-75
2022/06/26 03:57:04;;;;;;;10.35;8.68;;;20.40;1.00;;;22.16;82.86;99737.56;4961017;28;121386;-75
2022/06/26 03:59:34;;;;;;;13.70;9.15;;;20.30;1.00;;;22.09;83.69;99737.50;4958136;28;119822;-76
2022/06/26 04:02:05;;;;;;;12.38;9.45;;;20.40;1.00;;;22.07;83.80;99734.31;4998027;28;130191;-73
2022/06/26 04:04:33;;;;;;;11.73;9.25;;;20.40;1.00;;;22.06;84.48;99727.19;4981369;28;129928;-74
2022/06/26 04:07:02;;;;;;;11.00;8.70;;;20.50;1.00;;;22.10;85.46;99730.78;4983612;28;121471;-75
2022/06/26 04:09:36;;;;;;;10.88;8.63;;;20.60;1.00;;;22.02;85.16;99737.47;5014398;28;122115;-75
2022/06/26 04:12:07;;;;;;;10.60;9.35;;;20.60;1.00;;;22.12;85.88;99730.41;4984640;28;129504;-74
2022/06/26 04:14:39;;;;;;;12.75;8.77;;;20.80;1.00;;;22.35;84.57;99738.50;4984583;28;131655;-75
2022/06/26 04:17:09;;;;;;;13.02;8.70;;;21.00;1.00;;;22.33;84.88;99738.88;4981608;28;119808;-75
2022/06/26 04:19:42;;;;;;;11.07;8.95;;;21.00;1.00;;;22.36;85.31;99745.59;4984877;28;119361;-73
2022/06/26 04:22:11;;;;;;;10.18;8.98;;;21.00;1.00;;;22.40;85.13;99746.41;4981132;28;130159;-75
2022/06/26 04:24:41;;;;;;;9.73;8.38;;;21.10;1.00;;;22.55;84.72;99737.03;5018171;28;129724;-76
2022/06/26 04:27:11;;;;;;;10.68;8.82;;;21.30;1.00;;;22.70;84.73;99743.41;4999467;28;119950;-74
2022/06/26 04:29:39;;;;;;;10.43;8.55;;;21.40;1.00;;;22.89;83.67;99739.56;5014631;28;119559;-75
2022/06/26 04:32:09;;;;;;;10.30;8.40;;;21.50;99.90;;;22.95;83.17;99738.00;4979963;28;131824;-75
2022/06/26 04:34:42;;;;;;;10.75;8.50;;;21.50;99.90;;;23.13;82.99;99737.28;4984260;28;129803;-75
2022/06/26 04:37:11;;;;;;;9.43;7.65;;;21.80;99.90;;;23.29;80.30;99734.16;5014788;28;119950;-75
2022/06/26 04:39:40;;;;;;;9.35;7.88;;;21.80;99.90;;;23.30;80.63;99747.59;4984347;28;119326;-74
2022/06/26 04:42:10;;;;;;;10.45;7.93;;;21.90;99.90;;;23.38;79.53;99747.63;5018674;28;129110;-74
2022/06/26 04:44:41;;;;;;;7.85;7.00;;;22.00;99.90;;;23.55;76.01;99746.88;5004049;28;129129;-75
2022/06/26 04:47:10;;;;;;;8.30;7.45;;;22.10;99.90;;;23.56;76.04;99742.91;5034640;27;119824;-74
2022/06/26 04:49:54;;;;;;;10.10;7.10;;;22.20;99.90;;;23.96;76.11;99754.81;5001415;28;119510;-75
2022/06/26 04:52:24;;;;;;;10.73;7.13;;;22.60;99.90;;;23.97;73.42;99750.88;4988681;28;128980;-76
2022/06/26 04:54:55;;;;;;;10.20;6.90;;;22.60;99.90;;;24.23;72.97;99748.84;5008103;28;129179;-75
2022/06/26 04:57:27;;;;;;;9.68;7.00;;;22.80;99.90;;;24.57;71.58;99754.78;5002921;28;121917;-75
2022/06/26 04:59:56;;;;;;;9.00;6.93;;;23.10;99.90;;;24.75;68.32;99754.69;5008499;28;121386;-76
2022/06/26 05:02:24;;;;;;;8.52;6.63;;;23.20;99.90;;;24.90;67.36;99754.63;5004495;28;129037;-75
2022/06/26 05:05:11;;;;;;;8.50;5.85;;;23.30;99.90;;;24.93;67.01;99760.19;5018880;28;129666;-75
2022/06/26 05:07:49;;;;;;;7.78;6.13;;;23.30;99.90;;;24.88;68.30;99757.03;5019158;28;120251;-75
2022/06/26 05:10:20;;;;;;;8.48;6.10;;;23.40;99.90;;;24.79;65.55;99762.22;5004588;28;118731;-76
2022/06/26 05:12:57;;;;;;;8.52;6.50;;;23.20;99.90;;;25.01;66.00;99763.72;5000955;28;130105;-75
2022/06/26 05:15:46;;;;;;;8.75;5.88;;;23.40;99.90;;;25.08;63.98;99765.69;5013577;28;129710;-77
2022/06/26 05:18:16;;;;;;;9.93;5.15;;;23.50;99.90;;;24.99;64.22;99768.88;5019240;28;119831;-77
2022/06/26 05:20:45;;;;;;;7.68;6.43;;;23.50;99.90;;;25.14;64.68;99763.28;5004620;28;119259;-76
2022/06/26 05:23:15;;;;;;;9.20;6.30;;;23.60;99.90;;;25.05;65.75;99767.25;5002972;28;131088;-77
2022/06/26 05:25:54;;;;;;;9.90;6.22;;;23.50;99.90;;;25.18;64.36;99770.41;5007235;28;129395;-75
2022/06/26 05:28:24;;;;;;;9.48;5.93;;;23.70;99.90;;;25.16;63.20;99772.00;5022428;28;119418;-75
2022/06/26 05:30:52;;;;;;;8.15;5.40;;;23.60;99.90;;;25.53;63.78;99768.63;5022528;28;119314;-77
2022/06/26 05:33:21;;;;;;;8.07;5.95;;;24.00;99.90;;;25.34;64.21;99767.16;5022017;28;130367;-74
2022/06/26 05:35:49;;;;;;;6.85;5.70;;;23.90;99.90;;;25.20;62.86;99767.22;5003680;28;130640;-76
2022/06/26 05:38:19;;;;;;;8.77;5.75;;;23.90;99.90;;;25.62;63.40;99771.75;4990849;28;118926;-77
2022/06/26 05:40:48;;;;;;;7.93;5.68;;;24.10;99.90;;;25.76;61.83;99781.19;5006458;28;119608;-77
2022/06/26 05:43:18;;;;;;;6.47;5.30;;;24.20;99.90;;;25.95;62.79;99777.84;5011900;27;130402;-76
2022/06/26 05:45:49;;;;;;;7.13;5.60;;;24.40;99.90;;;25.95;61.60;99777.06;5010213;27;129240;-76
2022/06/26 05:48:26;;;;;;;6.18;5.05;;;24.40;99.90;;;26.07;62.28;99784.13;5039838;27;122249;-76
2022/06/26 05:51:27;;;;;;;7.65;5.28;;;24.60;99.90;;;26.31;59.67;99787.91;5031944;27;121705;-73
2022/06/26 05:54:03;;;;;;;6.18;4.60;;;24.80;99.90;;;26.53;57.63;99778.13;5041085;27;129562;-74
2022/06/26 05:56:52;;;;;;;9.05;4.80;;;24.90;99.90;;;26.98;57.60;99784.81;5026533;27;128659;-80
2022/06/26 05:59:40;;;;;;;7.80;4.57;;;25.20;99.90;;;27.25;56.94;99782.88;5044365;27;119341;-77
2022/06/26 06:02:18;;;;;;;6.38;4.57;;;25.30;99.90;;;26.87;55.51;99796.88;5041197;27;119606;-79
2022/06/26 06:04:47;;;;;;;7.70;5.18;;;25.10;99.90;;;27.08;57.34;99790.25;5027363;27;130179;-79
2022/06/26 06:07:15;;;;;;;8.85;4.78;;;25.20;99.90;;;27.11;54.84;99788.59;5040725;27;130110;-76
2022/06/26 06:09:44;;;;;;;6.97;4.50;;;25.30;99.90;;;27.41;55.92;99789.81;5027471;27;119535;-78
2022/06/26 06:12:14;;;;;;;7.50;4.78;;;25.50;99.90;;;27.58;54.61;99794.38;5041259;27;119347;-75
2022/06/26 06:14:43;;;;;;;7.35;4.72;;;25.70;99.90;;;27.61;54.49;99796.31;5025662;27;130154;-76
2022/06/26 06:19:59;;;;;;;7.47;3.90;;;25.60;99.90;;;27.20;54.83;99800.03;5042062;27;119524;-83
2022/06/26 06:22:27;;;;;;;6.15;4.18;;;25.50;99.90;;;27.31;54.25;99799.09;5040639;27;119602;-80
2022/06/26 06:24:57;;;;;;;9.27;4.63;;;25.60;99.90;;;27.41;54.28;99801.78;5044173;27;130105;-78
2022/06/26 06:27:27;;;;;;;7.13;4.45;;;25.80;99.90;;;27.68;53.83;99797.44;5034551;27;129729;-74
2022/06/26 06:29:58;;;;;;;6.90;4.30;;;26.10;99.90;;;27.75;52.23;99797.31;5005751;28;121868;-80
2022/06/26 06:32:28;;;;;;;6.25;4.55;;;26.00;99.90;;;27.56;51.84;99796.78;5014238;27;119932;-76
2022/06/26 06:34:58;;;;;;;9.07;4.28;;;25.80;99.90;;;27.39;53.91;99793.03;5040204;27;130111;-76
2022/06/26 06:37:27;;;;;;;6.93;3.75;;;25.80;99.90;;;27.75;51.66;99800.09;5039177;27;130120;-75
2022/06/26 06:39:56;;;;;;;8.10;4.70;;;26.00;99.90;;;27.81;52.33;99806.75;5041524;27;121785;-77
2022/06/26 06:42:25;;;;;;;7.57;4.95;;;26.20;99.90;;;27.72;52.20;99804.53;5022872;27;121707;-80
2022/06/26 06:44:54;;;;;;;8.05;4.22;;;26.20;99.90;;;28.12;51.91;99803.91;5041899;27;129600;-77
2022/06/26 06:47:50;;;;;;;7.73;4.00;;;26.30;99.90;;;28.49;52.53;99804.88;5040454;27;129759;-75
2022/06/26 06:50:52;;;;;;;7.22;4.15;;;26.60;99.90;;;28.67;50.82;99804.53;4991210;27;119390;-76
2022/06/26 06:53:21;;;;;;;7.40;4.20;;;26.70;99.90;;;28.80;50.02;99801.94;5008145;27;118501;-78
2022/06/26 06:55:50;;;;;;;7.97;3.97;;;26.80;99.90;;;28.47;48.76;99810.88;5025169;27;129608;-76
2022/06/26 06:58:19;;;;;;;6.20;3.90;;;26.40;99.90;;;28.36;50.88;99801.09;5021956;27;129554;-75
2022/06/26 07:00:47;;;;;;;7.90;3.67;;;26.60;99.90;;;28.35;49.04;99796.75;5025700;27;119966;-80
2022/06/26 07:03:16;;;;;;;4.90;3.40;;;26.70;99.90;;;28.28;49.78;99806.84;5039505;27;119633;-78
2022/06/26 07:05:45;;;;;;;6.55;3.47;;;26.70;99.90;;;28.13;50.46;99797.13;5024389;27;129772;-82
2022/06/26 07:08:15;;;;;;;6.18;3.88;;;26.60;99.90;;;28.18;49.82;99802.22;5038284;27;130107;-77
2022/06/26 07:10:44;;;;;;;5.72;3.50;;;26.60;99.90;;;28.07;49.15;99804.41;5025356;27;119635;-76
2022/06/26 07:13:12;;;;;;;6.57;3.70;;;26.50;99.90;;;28.24;49.30;99800.53;5039685;27;118929;-79
2022/06/26 07:15:41;;;;;;;5.90;3.80;;;26.70;99.90;;;28.39;48.96;99803.06;5025290;27;129873;-78
2022/06/26 07:18:10;;;;;;;5.07;3.35;;;26.70;99.90;;;28.61;48.72;99807.06;5024969;27;128531;-76
2022/06/26 07:20:39;;;;;;;4.80;3.70;;;26.70;99.90;;;28.99;50.09;99791.97;5042588;27;120612;-86
2022/06/26 07:23:08;;;;;;;5.95;4.20;;;27.00;99.90;;;29.36;48.31;99795.59;5025238;27;119187;-77
2022/06/26 07:25:55;;;;;;;4.80;3.22;;;27.30;99.90;;;29.17;48.14;99797.16;5041352;27;128539;-75
2022/06/26 07:28:29;;;;;;;4.80;3.67;;;27.30;99.90;;;29.14;47.43;99792.44;5041158;27;128827;-76
2022/06/26 07:30:58;;;;;;;5.88;3.85;;;27.20;99.90;;;29.29;47.14;99796.53;5041151;27;122567;-80
2022/06/26 07:36:09;;;;;;;5.28;3.75;;;27.40;99.90;;;29.42;46.94;99799.47;4991934;27;128839;-77
2022/06/26 07:38:39;;;;;;;5.57;4.10;;;27.50;99.90;;;29.44;46.61;99793.44;5042555;27;129701;-79
2022/06/26 07:41:10;;;;;;;6.55;4.13;;;27.50;99.90;;;29.70;45.45;99800.81;5025433;27;119442;-77
2022/06/26 07:43:38;;;;;;;5.57;4.05;;;27.60;99.90;;;30.17;44.17;99796.09;5039257;27;119355;-74
2022/06/26 07:46:07;;;;;;;6.53;4.03;;;28.00;99.90;;;30.31;44.95;99804.13;5008961;27;129557;-76
2022/06/26 07:48:35;;;;;;;5.20;4.30;;;28.00;99.90;;;30.04;44.99;99798.81;5042513;27;128828;-77
2022/06/26 07:51:05;;;;;;;9.80;3.97;;;27.80;99.90;;;30.37;46.42;99791.19;5025571;27;119366;-77
2022/06/26 07:53:33;;;;;;;5.32;4.13;;;28.10;99.90;;;29.73;44.37;99794.34;5040948;27;119808;-78
2022/06/26 07:56:02;;;;;;;5.43;3.88;;;27.70;99.90;;;29.31;46.08;99796.09;5039460;27;130501;-78
2022/06/26 07:58:32;;;;;;;6.90;4.30;;;27.30;99.90;;;29.78;46.20;99795.81;5039703;27;127638;-83
2022/06/26 08:01:01;;;;;;;7.15;4.00;;;27.50;99.90;;;30.19;44.31;99796.44;5039388;27;119503;-78
2022/06/26 08:03:30;;;;;;;6.82;4.40;;;27.90;99.90;;;30.16;45.42;99792.50;5038608;27;119818;-76
2022/06/26 08:05:58;;;;;;;5.72;4.20;;;27.90;99.90;;;29.80;46.94;99793.41;5040510;27;131001;-78
2022/06/26 08:08:27;;;;;;;6.20;4.50;;;27.70;99.90;;;29.59;45.79;99789.06;5040347;27;129930;-80
2022/06/26 08:10:55;;;;;;;5.47;4.15;;;27.60;99.90;;;29.11;48.65;99798.88;5040386;27;119629;-81
2022/06/26 08:13:24;;;;;;;6.25;3.80;;;27.30;99.90;;;28.40;48.58;99807.44;5041490;27;120728;-79
2022/06/26 08:15:54;;;;;;;5.45;4.40;;;26.80;99.90;;;28.13;49.67;99797.91;5039388;27;130211;-80
2022/06/26 08:18:22;;;;;;;5.43;4.03;;;26.50;99.90;;;28.77;47.75;99800.00;5041667;27;129240;-78
2022/06/26 08:20:51;;;;;;;7.22;4.07;;;26.90;99.90;;;29.13;47.15;99790.88;5043372;27;122413;-75
2022/06/26 08:23:20;;;;;;;5.30;3.92;;;27.20;99.90;;;28.65;48.22;99807.75;5042463;27;121631;-78
2022/06/26 08:25:49;;;;;;;7.65;4.30;;;27.00;99.90;;;29.27;46.45;99796.19;5038100;27;130453;-76
2022/06/26 08:28:18;;;;;;;7.57;3.95;;;27.40;99.90;;;29.35;45.41;99803.19;5033613;27;129472;-76
2022/06/26 08:30:47;;;;;;;6.07;3.95;;;27.50;99.90;;;28.96;46.83;99804.00;5046291;27;120090;-77
2022/06/26 08:33:16;;;;;;;7.72;4.38;;;27.20;99.90;;;28.74;47.33;99798.06;5045129;27;118492;-78
2022/06/26 08:35:45;;;;;;;6.70;4.50;;;26.90;99.90;;;29.02;48.47;99791.09;5041564;27;130487;-80
2022/06/26 08:38:13;;;;;;;7.68;4.32;;;27.30;99.90;;;29.43;45.32;99803.03;5009689;27;128978;-75
2022/06/26 08:40:45;;;;;;;7.45;4.03;;;27.70;99.90;;;30.09;45.92;99798.28;5041747;27;120372;-76
2022/06/26 08:43:15;;;;;;;5.60;3.97;;;28.20;99.90;;;30.03;43.96;99798.03;5039606;27;119086;-78
2022/06/26 08:45:46;;;;;;;6.00;3.95;;;28.10;99.90;;;29.74;44.35;99793.09;5037971;27;130212;-79
2022/06/26 08:48:20;;;;;;;5.53;4.10;;;28.00;99.90;;;29.34;45.41;99796.03;5038225;27;129826;-75
2022/06/26 08:50:49;;;;;;;5.93;4.00;;;27.60;99.90;;;29.37;44.27;99789.56;5042363;27;121279;-78
2022/06/26 08:53:17;;;;;;;7.20;4.45;;;27.50;99.90;;;29.82;43.77;99781.78;5024466;27;118742;-76
2022/06/26 08:55:46;;;;;;;6.35;4.50;;;27.90;99.90;;;29.97;43.51;99783.00;5034489;27;129907;-75
2022/06/26 08:58:15;;;;;;;6.78;4.53;;;28.20;99.90;;;30.19;43.69;99785.25;5038389;27;129943;-77
2022/06/26 09:00:46;;;;;;;8.35;6.38;;;28.20;99.90;;;30.75;43.33;99782.16;5022214;27;119963;-78
2022/06/26 09:03:16;;;;;;;6.78;4.43;;;28.60;99.90;;;31.29;43.07;99779.81;5018307;28;119905;-79
2022/06/26 09:05:47;;;;;;;8.05;5.47;;;28.90;99.90;;;31.33;41.99;99786.09;5018144;28;130913;-82
2022/06/26 09:08:20;;;;;;;6.78;4.20;;;28.80;99.90;;;31.09;42.21;99783.63;5018180;28;130279;-77
2022/06/26 09:10:50;;;;;;;6.70;4.25;;;28.70;99.90;;;31.16;43.45;99783.38;5017484;28;121818;-84
2022/06/26 09:13:19;;;;;;;7.47;4.57;;;28.70;99.90;;;31.38;42.45;99776.34;5026005;27;122143;-76
2022/06/26 09:15:50;;;;;;;5.32;4.10;;;29.00;99.90;;;31.16;42.78;99777.78;5037744;27;130020;-77
2022/06/26 09:18:19;;;;;;;6.57;4.57;;;28.80;99.90;;;30.50;43.26;99776.47;5023425;27;128732;-78
2022/06/26 09:20:55;;;;;;;7.57;4.38;;;28.20;99.90;;;30.03;44.17;99789.66;5038926;27;119550;-80
2022/06/26 09:23:24;;;;;;;9.82;4.70;;;28.00;99.90;;;30.05;44.02;99778.78;5038015;27;119905;-76
2022/06/26 09:25:52;;;;;;;8.40;4.50;;;27.90;99.90;;;30.19;44.13;99780.44;5037636;27;130194;-79
2022/06/26 09:28:23;;;;;;;5.80;4.38;;;28.00;99.90;;;29.85;45.09;99778.09;5037063;27;130165;-79
2022/06/26 09:30:55;;;;;;;7.00;3.97;;;27.80;99.90;;;30.34;46.40;99769.66;5037429;27;119366;-78
2022/06/26 09:33:27;;;;;;;6.57;4.20;;;28.30;99.90;;;30.53;45.53;99770.78;5036943;27;119131;-78
2022/06/26 09:35:58;;;;;;;5.88;4.45;;;28.60;99.90;;;30.01;44.90;99786.50;5021060;27;129228;-76
2022/06/26 09:38:29;;;;;;;8.32;4.65;;;28.30;99.90;;;30.34;45.03;99780.88;5036731;27;129063;-76
2022/06/26 09:41:00;;;;;;;6.78;4.80;;;28.40;99.90;;;30.59;43.21;99779.41;5040596;27;119933;-81
2022/06/26 09:43:34;;;;;;;8.85;4.68;;;28.60;99.90;;;30.91;42.58;99772.13;5038252;27;119896;-80
2022/06/26 09:46:05;;;;;;;5.93;4.28;;;28.60;99.90;;;31.30;42.30;99781.41;5003618;28;130071;-76
2022/06/26 09:48:34;;;;;;;5.82;4.20;;;29.20;99.90;;;31.83;42.18;99776.13;5018329;28;129287;-83
2022/06/26 09:51:08;;;;;;;5.72;4.07;;;29.70;99.90;;;31.89;41.49;99777.13;5013263;28;118784;-77
2022/06/26 09:53:38;;;;;;;7.07;4.38;;;29.50;99.90;;;31.53;40.31;99781.09;5019282;28;119513;-80
2022/06/26 09:56:07;;;;;;;5.22;4.15;;;29.20;97.60;;;30.61;42.29;99782.56;5018295;28;130369;-78
2022/06/26 09:58:36;;;;;;;7.25;4.60;;;28.40;99.90;;;30.68;42.01;99787.94;5018607;28;129505;-75
2022/06/26 10:06:40;;;;;;;5.65;4.07;;;29.00;97.50;;;31.42;40.90;99775.00;5018093;28;129951;-80
2022/06/26 10:09:10;;;;;;;6.00;4.60;;;29.00;97.50;;;31.22;40.68;99771.66;5021888;28;129622;-76
2022/06/26 10:11:42;;;;;;;7.07;4.57;;;28.90;97.40;;;30.60;43.32;99772.59;5026006;27;121634;-78
2022/06/26 10:14:16;;;;;;;6.15;4.50;;;28.50;99.90;;;30.62;43.17;99767.31;5027126;27;119371;-75
2022/06/26 10:17:26;;;;;;;6.27;4.60;;;28.50;99.90;;;30.10;42.91;99767.06;5027069;27;128652;-83
2022/06/26 10:19:58;;;;;;;7.40;5.00;;;28.20;99.90;;;30.45;43.43;99769.41;5044192;27;128874;-77
2022/06/26 10:22:40;;;;;;;8.75;5.03;;;28.30;99.90;;;31.17;44.29;99773.75;5027326;27;119940;-79
2022/06/26 10:25:20;;;;;;;8.38;5.18;;;29.00;99.90;;;31.16;42.54;99772.19;5040729;27;119456;-82
2022/06/26 10:27:49;;;;;;;9.63;5.35;;;29.10;99.90;;;31.27;43.83;99777.47;5025875;27;128654;-80
2022/06/26 10:30:20;;;;;;;7.68;4.43;;;28.90;99.90;;;30.80;43.17;99767.59;5041921;27;129418;-81
2022/06/26 10:33:08;;;;;;;7.28;4.68;;;28.50;99.90;;;31.02;44.37;99761.41;5042475;27;120777;-84
2022/06/26 10:35:43;;;;;;;8.00;4.45;;;28.50;99.90;;;30.35;44.33;99765.63;5041872;27;118607;-81
2022/06/26 10:38:24;;;;;;;7.05;4.57;;;28.10;99.90;;;29.40;45.44;99769.16;5042365;27;129463;-79
2022/06/26 10:44:02;;;;;;;6.97;4.38;;;27.80;99.90;;;29.05;46.70;99763.09;5027181;27;118872;-78